createdAt,value
2023-05-05T00:01:03.107Z,96.41
2023-05-05T00:03:29.964Z,97.05
2023-05-05T00:05:58.928Z,97.38
2023-05-05T00:08:31.044Z,98.87
2023-05-05T00:11:00.764Z,99.08
2023-05-05T00:13:27.230Z,99.23
2023-05-05T00:15:53.879Z,100.00
2023-05-05T00:18:21.268Z,99.88
2023-05-05T00:20:48.173Z,99.50
2023-05-05T00:23:15.958Z,99.23
2023-05-05T00:25:42.567Z,100.00
2023-05-05T00:28:09.076Z,100.00
2023-05-05T00:30:36.528Z,100.00
2023-05-05T00:33:03.120Z,100.00
2023-05-05T00:35:29.659Z,100.00
2023-05-05T00:37:56.148Z,100.00
2023-05-05T00:40:23.465Z,97.40
2023-05-05T00:42:51.076Z,98.79
2023-05-05T00:45:19.279Z,100.00
2023-05-05T00:47:51.514Z,99.81
2023-05-05T00:50:29.488Z,98.34
2023-05-05T00:53:03.274Z,97.23
2023-05-05T00:55:30.818Z,96.28
2023-05-05T00:58:02.885Z,97.28
2023-05-05T01:00:30.057Z,97.04
2023-05-05T01:02:57.370Z,96.09
2023-05-05T01:05:26.968Z,96.46
2023-05-05T01:08:30.626Z,94.63
2023-05-05T01:11:10.535Z,97.19
2023-05-05T01:13:53.701Z,97.08
2023-05-05T01:16:27.357Z,98.48
2023-05-05T01:19:08.981Z,97.28
2023-05-05T01:21:41.200Z,97.65
2023-05-05T01:24:29.521Z,99.85
2023-05-05T01:27:27.282Z,100.00
2023-05-05T01:30:21.252Z,100.00
2023-05-05T01:32:55.157Z,100.00
2023-05-05T01:35:44.556Z,99.57
2023-05-05T01:38:16.997Z,96.94
2023-05-05T01:40:48.067Z,96.10
2023-05-05T01:43:18.864Z,96.09
2023-05-05T01:45:47.680Z,96.58
2023-05-05T01:48:17.815Z,97.79
2023-05-05T01:50:47.718Z,99.04
2023-05-05T01:53:18.072Z,100.00
2023-05-05T01:55:47.319Z,99.69
2023-05-05T01:58:16.209Z,98.84
2023-05-05T02:00:44.506Z,99.38
2023-05-05T02:03:14.489Z,100.00
2023-05-05T02:05:43.444Z,100.00
2023-05-05T02:08:11.447Z,98.88
2023-05-05T02:10:42.832Z,99.26
2023-05-05T02:13:12.550Z,100.00
2023-05-05T02:15:40.505Z,99.98
2023-05-05T02:18:09.872Z,99.47
2023-05-05T02:20:39.607Z,100.00
2023-05-05T02:23:07.895Z,100.00
2023-05-05T02:25:43.836Z,100.00
2023-05-05T02:28:17.796Z,100.00
2023-05-05T02:30:55.176Z,100.00
2023-05-05T02:33:23.574Z,100.00
2023-05-05T02:35:53.332Z,100.00
2023-05-05T02:38:27.552Z,100.00
2023-05-05T02:41:00.377Z,100.00
2023-05-05T02:43:31.621Z,100.00
2023-05-05T02:45:58.516Z,100.00
2023-05-05T02:48:25.707Z,100.00
2023-05-05T02:50:53.731Z,100.00
2023-05-05T02:53:27.500Z,100.00
2023-05-05T02:55:59.998Z,100.00
2023-05-05T02:59:10.021Z,100.00
2023-05-05T03:01:51.146Z,100.00
2023-05-05T03:04:42.604Z,100.00
2023-05-05T03:07:15.202Z,100.00
2023-05-05T03:09:55.356Z,100.00
2023-05-05T03:12:27.397Z,100.00
2023-05-05T03:15:12.434Z,100.00
2023-05-05T03:17:41.572Z,100.00
2023-05-05T03:20:10.364Z,100.00
2023-05-05T03:22:40.415Z,100.00
2023-05-05T03:25:11.418Z,100.00
2023-05-05T03:27:37.899Z,100.00
2023-05-05T03:30:06.846Z,100.00
2023-05-05T03:32:36.053Z,100.00
2023-05-05T03:35:02.598Z,100.00
2023-05-05T03:37:32.709Z,100.00
2023-05-05T03:39:59.567Z,100.00
2023-05-05T03:42:26.032Z,100.00
2023-05-05T03:44:53.783Z,100.00
2023-05-05T03:47:24.499Z,100.00
2023-05-05T03:49:52.431Z,100.00
2023-05-05T03:52:19.083Z,100.00
2023-05-05T03:54:46.397Z,100.00
2023-05-05T03:57:12.840Z,100.00
2023-05-05T03:59:40.447Z,100.00
2023-05-05T04:02:07.446Z,100.00
2023-05-05T04:04:34.176Z,100.00
2023-05-05T04:07:00.724Z,100.00
2023-05-05T04:09:27.200Z,100.00
2023-05-05T04:11:53.825Z,100.00
2023-05-05T04:14:20.470Z,100.00
2023-05-05T04:16:46.927Z,100.00
2023-05-05T04:19:13.490Z,100.00
2023-05-05T04:21:40.718Z,100.00
2023-05-05T04:24:07.197Z,100.00
2023-05-05T04:26:34.080Z,100.00
2023-05-05T04:29:00.978Z,100.00
2023-05-05T04:31:27.620Z,100.00
2023-05-05T04:33:54.187Z,100.00
2023-05-05T04:36:20.883Z,100.00
2023-05-05T04:38:47.830Z,100.00
2023-05-05T04:41:14.328Z,100.00
2023-05-05T04:43:42.566Z,100.00
2023-05-05T04:46:09.183Z,100.00
2023-05-05T04:48:37.889Z,100.00
2023-05-05T04:51:06.390Z,100.00
2023-05-05T04:53:33.438Z,100.00
2023-05-05T04:56:01.193Z,100.00
2023-05-05T04:58:28.482Z,100.00
2023-05-05T05:00:55.330Z,100.00
2023-05-05T05:03:22.053Z,100.00
2023-05-05T05:05:48.694Z,100.00
2023-05-05T05:08:18.567Z,100.00
2023-05-05T05:10:45.320Z,100.00
2023-05-05T05:13:12.867Z,100.00
2023-05-05T05:15:39.748Z,100.00
2023-05-05T05:18:06.495Z,100.00
2023-05-05T05:20:33.177Z,100.00
2023-05-05T05:23:02.051Z,93.50
2023-05-05T05:25:30.311Z,84.72
2023-05-05T05:28:08.815Z,78.89
2023-05-05T05:30:39.312Z,71.85
2023-05-05T05:33:07.651Z,76.15
2023-05-05T05:35:34.466Z,77.93
2023-05-05T05:38:01.323Z,77.09
2023-05-05T05:40:27.986Z,75.26
2023-05-05T05:42:55.141Z,72.60
2023-05-05T05:45:23.542Z,72.03
2023-05-05T05:47:50.374Z,73.07
2023-05-05T05:50:17.023Z,72.62
2023-05-05T05:52:43.751Z,69.42
2023-05-05T05:55:10.445Z,71.50
2023-05-05T05:57:38.596Z,71.92
2023-05-05T06:00:07.769Z,71.31
2023-05-05T06:02:42.719Z,73.01
2023-05-05T06:05:13.925Z,75.65
2023-05-05T06:07:42.348Z,77.63
2023-05-05T06:10:25.834Z,74.33
2023-05-05T06:12:57.574Z,77.50
2023-05-05T06:15:25.484Z,71.84
2023-05-05T06:17:52.358Z,68.10
2023-05-05T06:20:19.005Z,66.11
2023-05-05T06:22:45.643Z,66.81
2023-05-05T06:25:12.276Z,64.90
2023-05-05T06:27:38.717Z,66.15
2023-05-05T06:30:06.838Z,63.03
2023-05-05T06:32:33.445Z,59.23
2023-05-05T06:34:59.944Z,58.74
2023-05-05T06:37:26.403Z,59.82
2023-05-05T06:39:52.850Z,61.72
2023-05-05T06:42:19.301Z,64.28
2023-05-05T06:44:46.421Z,64.93
2023-05-05T06:47:12.984Z,62.75
2023-05-05T06:49:39.448Z,62.52
2023-05-05T06:52:08.099Z,60.81
2023-05-05T06:54:34.532Z,60.21
2023-05-05T06:57:01.090Z,58.55
2023-05-05T06:59:27.595Z,57.75
2023-05-05T07:01:54.227Z,52.85
2023-05-05T07:04:21.357Z,49.34
2023-05-05T07:06:47.834Z,47.99
2023-05-05T07:09:16.403Z,44.75
2023-05-05T07:11:43.494Z,44.37
2023-05-05T07:14:09.936Z,45.84
2023-05-05T07:16:37.259Z,46.27
2023-05-05T07:19:06.121Z,46.95
2023-05-05T07:21:34.153Z,47.28
2023-05-05T07:24:02.324Z,45.72
2023-05-05T07:26:28.986Z,47.58
2023-05-05T07:28:57.202Z,46.78
2023-05-05T07:31:23.807Z,44.17
2023-05-05T07:33:50.278Z,42.26
2023-05-05T07:36:20.041Z,41.77
2023-05-05T07:38:46.620Z,41.76
2023-05-05T07:41:13.216Z,39.19
2023-05-05T07:43:44.509Z,42.40
2023-05-05T07:46:11.514Z,41.79
2023-05-05T07:48:41.621Z,40.24
2023-05-05T07:51:08.610Z,41.13
2023-05-05T07:53:35.149Z,41.01
2023-05-05T07:56:01.836Z,40.22
2023-05-05T07:58:28.356Z,39.17
2023-05-05T08:00:54.869Z,39.62
2023-05-05T08:03:24.295Z,38.87
2023-05-05T08:05:55.683Z,39.58
2023-05-05T08:08:26.844Z,39.91
2023-05-05T08:10:53.491Z,40.62
2023-05-05T08:13:20.447Z,41.59
2023-05-05T08:15:47.271Z,40.04
2023-05-05T08:18:14.416Z,39.71
2023-05-05T08:20:41.056Z,39.87
2023-05-05T08:23:07.575Z,41.92
2023-05-05T08:25:34.126Z,44.05
2023-05-05T08:28:01.247Z,46.14
2023-05-05T08:30:28.444Z,47.03
2023-05-05T08:32:59.613Z,45.77
2023-05-05T08:35:29.424Z,46.63
2023-05-05T08:37:59.086Z,47.40
2023-05-05T08:40:32.137Z,46.32
2023-05-05T08:42:59.165Z,45.80
2023-05-05T08:45:27.786Z,45.88
2023-05-05T08:47:56.717Z,46.62
2023-05-05T08:50:26.883Z,45.88
2023-05-05T08:53:07.340Z,44.52
2023-05-05T08:55:35.425Z,45.27
2023-05-05T08:58:05.255Z,46.57
2023-05-05T09:00:33.144Z,47.43
2023-05-05T09:03:01.372Z,47.71
2023-05-05T09:05:28.009Z,45.24
2023-05-05T09:07:54.738Z,43.90
2023-05-05T09:10:21.570Z,44.07
2023-05-05T09:12:50.930Z,46.77
2023-05-05T09:15:17.635Z,44.72
2023-05-05T09:17:44.306Z,46.31
2023-05-05T09:20:13.213Z,45.64
2023-05-05T09:22:41.767Z,44.81
2023-05-05T09:25:15.601Z,46.88
2023-05-05T09:27:47.425Z,46.89
2023-05-05T09:30:27.056Z,46.17
2023-05-05T09:32:55.072Z,45.97
2023-05-05T09:35:22.658Z,46.16
2023-05-05T09:37:49.714Z,43.79
2023-05-05T09:40:18.943Z,45.48
2023-05-05T09:42:45.928Z,45.75
2023-05-05T09:45:18.568Z,46.94
2023-05-05T09:47:46.790Z,46.58
2023-05-05T09:50:16.030Z,45.76
2023-05-05T09:52:43.274Z,45.98
2023-05-05T09:55:20.577Z,43.40
2023-05-05T09:57:47.477Z,43.24
2023-05-05T10:00:17.610Z,43.94
2023-05-05T10:02:44.370Z,43.59
2023-05-05T10:05:16.263Z,45.10
2023-05-05T10:07:47.738Z,43.87
2023-05-05T10:10:18.081Z,43.29
2023-05-05T10:12:47.523Z,44.52
2023-05-05T10:15:18.457Z,43.68
2023-05-05T10:18:05.351Z,41.58
2023-05-05T10:20:33.456Z,42.54
2023-05-05T10:23:05.431Z,43.54
2023-05-05T10:25:39.105Z,42.55
2023-05-05T10:28:09.424Z,41.38
2023-05-05T10:30:44.000Z,40.50
2023-05-05T10:35:55.421Z,40.96
2023-05-05T10:38:24.812Z,39.49
2023-05-05T10:40:56.139Z,40.55
2023-05-05T10:43:24.108Z,40.17
2023-05-05T10:45:51.092Z,40.98
2023-05-05T10:48:25.000Z,41.70
2023-05-05T10:50:57.431Z,42.03
2023-05-05T10:53:29.308Z,43.14
2023-05-05T10:56:21.937Z,40.66
2023-05-05T10:58:58.890Z,40.81
2023-05-05T11:01:33.492Z,39.34
2023-05-05T11:04:20.540Z,40.21
2023-05-05T11:07:11.823Z,40.30
2023-05-05T11:10:01.603Z,38.80
2023-05-05T11:12:29.712Z,39.30
2023-05-05T11:15:24.181Z,39.12
2023-05-05T11:17:51.069Z,40.05
2023-05-05T11:20:17.647Z,40.60
2023-05-05T11:23:02.118Z,40.41
2023-05-05T11:25:34.664Z,40.03
2023-05-05T11:28:06.344Z,39.62
2023-05-05T11:30:32.913Z,43.20
2023-05-05T11:33:31.470Z,44.14
2023-05-05T11:36:03.520Z,45.17
2023-05-05T11:39:11.299Z,43.50
2023-05-05T11:42:02.944Z,43.46
2023-05-05T11:44:35.771Z,43.58
2023-05-05T11:47:04.994Z,42.93
2023-05-05T11:49:36.671Z,43.74
2023-05-05T11:52:12.440Z,43.20
2023-05-05T11:54:47.989Z,43.58
2023-05-05T11:57:21.158Z,43.16
2023-05-05T11:59:56.881Z,41.98
2023-05-05T12:02:24.371Z,41.67
2023-05-05T12:04:50.992Z,41.65
2023-05-05T12:07:19.042Z,42.29
2023-05-05T12:09:47.238Z,40.68
2023-05-05T12:12:14.790Z,40.26
2023-05-05T12:14:52.632Z,38.06
2023-05-05T12:17:21.191Z,37.67
2023-05-05T12:19:55.192Z,36.74
2023-05-05T12:22:24.241Z,38.00
2023-05-05T12:24:55.604Z,39.86
2023-05-05T12:27:22.794Z,37.57
2023-05-05T12:29:49.591Z,39.15
2023-05-05T12:32:27.957Z,37.23
2023-05-05T12:34:57.534Z,36.98
2023-05-05T12:37:25.776Z,36.33
2023-05-05T12:39:54.740Z,37.64
2023-05-05T12:43:12.302Z,36.73
2023-05-05T12:45:38.822Z,37.08
2023-05-05T12:48:23.972Z,36.99
2023-05-05T12:50:50.980Z,34.89
2023-05-05T12:53:24.518Z,35.94
2023-05-05T12:55:51.857Z,36.85
2023-05-05T12:58:18.273Z,36.54
2023-05-05T13:00:44.706Z,36.85
2023-05-05T13:03:21.121Z,37.04
2023-05-05T13:05:50.269Z,38.77
2023-05-05T13:08:18.485Z,38.77
2023-05-05T13:10:58.328Z,37.44
2023-05-05T13:13:24.820Z,38.03
2023-05-05T13:15:51.323Z,39.16
2023-05-05T13:18:17.930Z,39.64
2023-05-05T13:20:44.407Z,40.82
2023-05-05T13:23:10.932Z,41.76
2023-05-05T13:25:37.443Z,41.26
2023-05-05T13:28:04.066Z,43.37
2023-05-05T13:30:30.551Z,43.23
2023-05-05T13:32:57.072Z,42.13
2023-05-05T13:35:23.641Z,41.53
2023-05-05T13:37:50.154Z,42.37
2023-05-05T13:40:16.671Z,43.50
2023-05-05T13:42:43.264Z,43.16
2023-05-05T13:45:10.463Z,43.63
2023-05-05T13:47:38.110Z,45.49
2023-05-05T13:50:05.046Z,44.93
2023-05-05T13:52:32.274Z,45.92
2023-05-05T13:55:00.787Z,45.95
2023-05-05T13:57:27.202Z,45.18
2023-05-05T13:59:53.576Z,45.76
2023-05-05T14:02:19.988Z,47.02
2023-05-05T14:04:47.152Z,47.65
2023-05-05T14:07:13.648Z,47.92
2023-05-05T14:09:40.033Z,49.97
2023-05-05T14:12:06.475Z,50.78
2023-05-05T14:14:32.975Z,51.70
2023-05-05T14:16:59.406Z,52.65
2023-05-05T14:19:25.864Z,51.90
2023-05-05T14:21:52.288Z,56.32
2023-05-05T14:24:18.674Z,68.94
2023-05-05T14:26:45.131Z,74.28
2023-05-05T14:29:11.518Z,78.58
2023-05-05T14:31:37.947Z,82.40
2023-05-05T14:34:04.360Z,83.29
2023-05-05T14:36:31.206Z,84.96
2023-05-05T14:38:57.682Z,81.36
2023-05-05T14:41:24.356Z,80.30
2023-05-05T14:43:50.784Z,76.17
2023-05-05T14:46:18.600Z,79.96
2023-05-05T14:48:46.391Z,76.13
2023-05-05T14:51:14.936Z,76.31
2023-05-05T14:53:41.412Z,80.48
2023-05-05T14:56:07.834Z,75.34
2023-05-05T14:58:34.393Z,78.98
2023-05-05T15:01:00.913Z,76.34
2023-05-05T15:03:27.615Z,78.99
2023-05-05T15:05:54.142Z,76.96
2023-05-05T15:08:20.645Z,74.16
2023-05-05T15:10:47.078Z,77.96
2023-05-05T15:13:13.651Z,79.86
2023-05-05T15:15:40.416Z,77.86
2023-05-05T15:18:07.060Z,83.27
2023-05-05T15:20:33.465Z,79.97
2023-05-05T15:23:01.293Z,80.82
2023-05-05T15:25:27.798Z,82.34
2023-05-05T15:27:54.209Z,83.13
2023-05-05T15:30:20.856Z,87.82
2023-05-05T15:32:47.806Z,88.60
2023-05-05T15:35:14.225Z,89.96
2023-05-05T15:37:42.347Z,93.00
2023-05-05T15:40:09.293Z,92.35
2023-05-05T15:42:35.753Z,93.13
2023-05-05T15:45:02.723Z,96.75
2023-05-05T15:47:29.246Z,93.83
2023-05-05T15:49:55.690Z,97.82
2023-05-05T15:52:22.140Z,98.30
2023-05-05T15:54:48.590Z,98.79
2023-05-05T15:57:15.299Z,94.74
2023-05-05T15:59:41.770Z,95.79
2023-05-05T16:02:08.206Z,95.34
2023-05-05T16:04:34.650Z,93.47
2023-05-05T16:07:03.164Z,92.45
2023-05-05T16:09:29.581Z,92.20
2023-05-05T16:11:55.996Z,91.43
2023-05-05T16:14:22.478Z,92.25
2023-05-05T16:16:48.976Z,89.26
2023-05-05T16:19:15.909Z,90.84
2023-05-05T16:21:42.358Z,92.22
2023-05-05T16:24:08.827Z,96.78
2023-05-05T16:26:35.870Z,100.00
2023-05-05T16:29:02.348Z,98.89
2023-05-05T16:31:28.767Z,100.00
2023-05-05T16:33:55.208Z,100.00
2023-05-05T16:36:21.601Z,100.00
2023-05-05T16:38:48.064Z,100.00
2023-05-05T16:41:14.534Z,100.00
2023-05-05T16:43:40.958Z,98.74
2023-05-05T16:46:07.449Z,100.00
2023-05-05T16:48:33.929Z,100.00
2023-05-05T16:51:00.341Z,99.76
2023-05-05T16:53:26.819Z,96.00
2023-05-05T16:55:53.412Z,98.50
2023-05-05T16:58:21.174Z,95.49
2023-05-05T17:00:48.990Z,99.93
2023-05-05T17:03:16.538Z,100.00
2023-05-05T17:05:43.874Z,99.32
2023-05-05T17:08:14.474Z,98.69
2023-05-05T17:10:42.137Z,97.59
2023-05-05T17:13:09.608Z,99.04
2023-05-05T17:15:37.331Z,95.03
2023-05-05T17:18:07.855Z,95.81
2023-05-05T17:20:34.758Z,95.15
2023-05-05T17:23:03.885Z,92.42
2023-05-05T17:25:31.062Z,93.01
2023-05-05T17:27:57.487Z,94.34
2023-05-05T17:30:24.045Z,95.58
2023-05-05T17:32:50.533Z,91.56
2023-05-05T17:35:17.112Z,92.08
2023-05-05T17:37:43.533Z,96.34
2023-05-05T17:40:10.397Z,95.38
2023-05-05T17:42:38.082Z,95.78
2023-05-05T17:45:05.147Z,93.08
2023-05-05T17:47:31.888Z,95.15
2023-05-05T17:49:58.404Z,93.75
2023-05-05T17:52:24.972Z,93.21
2023-05-05T17:54:51.873Z,95.85
2023-05-05T17:57:20.952Z,97.44
2023-05-05T17:59:49.536Z,97.56
2023-05-05T18:02:16.730Z,100.00
2023-05-05T18:04:43.372Z,98.09
2023-05-05T18:07:11.830Z,96.82
2023-05-05T18:09:38.907Z,95.45
2023-05-05T18:12:05.771Z,96.08
2023-05-05T18:14:32.270Z,95.20
2023-05-05T18:16:58.715Z,94.41
2023-05-05T18:19:25.474Z,98.42
2023-05-05T18:21:54.398Z,98.25
2023-05-05T18:24:20.996Z,100.00
2023-05-05T18:26:52.435Z,100.00
2023-05-05T18:29:20.047Z,100.00
2023-05-05T18:31:51.530Z,100.00
2023-05-05T18:34:20.312Z,100.00
2023-05-05T18:36:47.768Z,100.00
2023-05-05T18:39:14.634Z,100.00
2023-05-05T18:41:41.332Z,100.00
2023-05-05T18:44:07.987Z,100.00
2023-05-05T18:46:34.677Z,100.00
2023-05-05T18:49:01.240Z,100.00
2023-05-05T18:51:28.550Z,100.00
2023-05-05T18:53:55.186Z,100.00
2023-05-05T18:56:21.730Z,100.00
2023-05-05T18:58:48.566Z,100.00
2023-05-05T19:01:15.999Z,100.00
2023-05-05T19:03:45.785Z,100.00
2023-05-05T19:06:12.254Z,100.00
2023-05-05T19:08:38.758Z,100.00
2023-05-05T19:11:05.301Z,100.00
2023-05-05T19:13:31.758Z,100.00
2023-05-05T19:15:58.327Z,100.00
2023-05-05T19:18:25.160Z,100.00
2023-05-05T19:20:51.607Z,100.00
2023-05-05T19:23:18.120Z,100.00
2023-05-05T19:25:44.709Z,100.00
2023-05-05T19:28:11.956Z,100.00
2023-05-05T19:30:38.427Z,100.00
2023-05-05T19:33:05.010Z,100.00
2023-05-05T19:35:31.549Z,100.00
2023-05-05T19:37:58.066Z,100.00
2023-05-05T19:40:24.606Z,100.00
2023-05-05T19:42:51.107Z,100.00
2023-05-05T19:45:17.821Z,100.00
2023-05-05T19:47:44.408Z,100.00
2023-05-05T19:50:11.522Z,100.00
2023-05-05T19:52:38.450Z,100.00
2023-05-05T19:55:05.871Z,100.00
2023-05-05T19:57:32.404Z,100.00
2023-05-05T19:59:58.896Z,100.00
2023-05-05T20:02:27.191Z,100.00
2023-05-05T20:04:53.898Z,100.00
2023-05-05T20:07:20.770Z,100.00
2023-05-05T20:09:47.252Z,100.00
2023-05-05T20:12:13.834Z,100.00
2023-05-05T20:14:40.508Z,100.00
2023-05-05T20:17:07.007Z,100.00
2023-05-05T20:19:33.498Z,100.00
2023-05-05T20:22:00.043Z,100.00
2023-05-05T20:24:28.469Z,100.00
2023-05-05T20:26:54.948Z,100.00
2023-05-05T20:29:22.067Z,100.00
2023-05-05T20:31:48.696Z,100.00
2023-05-05T20:34:15.213Z,100.00
2023-05-05T20:36:41.741Z,100.00
2023-05-05T20:39:08.338Z,100.00
2023-05-05T20:41:36.174Z,100.00
2023-05-05T20:44:02.598Z,100.00
2023-05-05T20:46:29.076Z,100.00
2023-05-05T20:48:55.594Z,100.00
2023-05-05T20:51:22.108Z,100.00
2023-05-05T20:53:48.528Z,100.00
2023-05-05T20:56:14.971Z,100.00
2023-05-05T20:58:41.402Z,100.00
2023-05-05T21:01:07.929Z,100.00
2023-05-05T21:03:36.131Z,100.00
2023-05-05T21:06:02.750Z,100.00
2023-05-05T21:08:29.735Z,100.00
2023-05-05T21:10:56.185Z,100.00
2023-05-05T21:13:23.009Z,100.00
2023-05-05T21:15:50.186Z,100.00
2023-05-05T21:18:16.648Z,100.00
2023-05-05T21:20:43.102Z,100.00
2023-05-05T21:23:09.594Z,100.00
2023-05-05T21:25:37.501Z,100.00
2023-05-05T21:28:04.243Z,100.00
2023-05-05T21:30:30.829Z,100.00
2023-05-05T21:32:57.484Z,100.00
2023-05-05T21:35:24.151Z,100.00
2023-05-05T21:37:50.759Z,100.00
2023-05-05T21:40:17.546Z,100.00
2023-05-05T21:42:44.120Z,100.00
2023-05-05T21:45:11.438Z,100.00
2023-05-05T21:47:38.019Z,100.00
2023-05-05T21:50:04.885Z,100.00
2023-05-05T21:52:31.446Z,100.00
2023-05-05T21:54:58.144Z,100.00
2023-05-05T21:57:24.671Z,100.00
2023-05-05T21:59:51.272Z,100.00
2023-05-05T22:02:17.895Z,100.00
2023-05-05T22:04:48.401Z,100.00
2023-05-05T22:07:15.414Z,100.00
2023-05-05T22:09:42.016Z,100.00
2023-05-05T22:12:08.557Z,100.00
2023-05-05T22:14:35.868Z,100.00
2023-05-05T22:17:02.464Z,100.00
2023-05-05T22:19:29.035Z,100.00
2023-05-05T22:21:57.376Z,100.00
2023-05-05T22:24:23.841Z,100.00
2023-05-05T22:26:50.472Z,100.00
2023-05-05T22:29:17.014Z,100.00
2023-05-05T22:31:43.515Z,100.00
2023-05-05T22:34:10.023Z,100.00
2023-05-05T22:36:36.610Z,100.00
2023-05-05T22:39:03.138Z,100.00
2023-05-05T22:41:29.652Z,100.00
2023-05-05T22:43:56.420Z,100.00
2023-05-05T22:46:22.917Z,100.00
2023-05-05T22:48:49.515Z,100.00
2023-05-05T22:51:16.390Z,100.00
2023-05-05T22:53:42.897Z,100.00
2023-05-05T22:56:09.338Z,100.00
2023-05-05T22:58:35.826Z,100.00
2023-05-05T23:01:02.402Z,100.00
2023-05-05T23:03:28.862Z,100.00
2023-05-05T23:05:55.326Z,100.00
2023-05-05T23:08:23.912Z,100.00
2023-05-05T23:10:50.542Z,100.00
2023-05-05T23:13:17.138Z,100.00
2023-05-05T23:15:43.648Z,100.00
2023-05-05T23:18:10.166Z,100.00
2023-05-05T23:20:36.611Z,100.00
2023-05-05T23:23:03.120Z,100.00
2023-05-05T23:25:29.650Z,100.00
2023-05-05T23:27:56.255Z,100.00
2023-05-05T23:30:22.762Z,100.00
2023-05-05T23:32:49.369Z,100.00
2023-05-05T23:35:16.320Z,100.00
2023-05-05T23:37:42.779Z,100.00
2023-05-05T23:40:09.576Z,100.00
2023-05-05T23:42:36.039Z,100.00
2023-05-05T23:45:03.350Z,100.00
2023-05-05T23:47:29.824Z,100.00
2023-05-05T23:49:56.367Z,100.00
2023-05-05T23:52:22.891Z,100.00
2023-05-05T23:54:49.427Z,100.00
2023-05-05T23:57:15.991Z,100.00
2023-05-05T23:59:42.489Z,100.00
